Time;durP1;ratioP1;P1;durP2;ratioP2;P2;SDS_P1;SDS_P2;PMS_P1;PMS_P2;Temp;Humidity;BMP_temperature;BMP_pressure;BME280_temperature;BME280_humidity;BME280_pressure;Samples;Min_cycle;Max_cycle;Signal;HPM_P1;HPM_P2
2022/02/06 00:00:32;;;;;;;;;;;;;;;;;;4401431;32;20439;-68
2022/02/06 00:02:57;;;;;;;33.20;6.62;;;;;;;;;;4404545;32;19933;-69
2022/02/06 00:05:22;;;;;;;;;;;;;;;;;;4405862;32;20022;-68
2022/02/06 00:07:49;;;;;;;39.05;7.85;;;;;;;;;;4404009;32;20020;-68
2022/02/06 00:10:15;;;;;;;37.22;7.15;;;;;;;;;;4404484;32;20069;-68
2022/02/06 00:12:40;;;;;;;;;;;;;;;;;;4405956;32;20054;-68
2022/02/06 00:15:05;;;;;;;43.78;7.78;;;;;;;;;;4401022;32;19938;-69
2022/02/06 00:17:31;;;;;;;;;;;;;;;;;;4392863;32;20020;-69
2022/02/06 00:19:56;;;;;;;30.02;7.68;;;;;;;;;;4393525;32;19942;-69
2022/02/06 00:22:36;;;;;;;;;;;;;;;;;;4392168;32;20026;-68
2022/02/06 00:27:55;;;;;;;40.60;7.03;;;;;;;;;;4393802;32;20030;-69
2022/02/06 00:32:50;;;;;;;;;;;;;;;;;;4393491;32;20019;-69
2022/02/06 00:43:17;;;;;;;35.40;7.37;;;;;;;;;;4398012;32;20031;-69
2022/02/06 00:45:42;;;;;;;;;;;;;;;;;;4406961;32;20427;-68
2022/02/06 00:48:07;;;;;;;33.78;7.82;;;;;;;;;;4408328;32;19941;-69
2022/02/06 00:50:35;;;;;;;;;;;;;;;;;;4407216;32;20193;-69
2022/02/06 00:53:05;;;;;;;49.55;9.65;;;;;;;;;;4397411;32;20012;-68
2022/02/06 00:55:30;;;;;;;34.42;8.05;;;;;;;;;;4392338;32;20039;-68
2022/02/06 00:57:55;;;;;;;;;;;;;;;;;;4393052;32;20057;-69
2022/02/06 01:00:20;;;;;;;34.05;8.18;;;;;;;;;;4394593;32;19981;-68
2022/02/06 01:02:45;;;;;;;;;;;;;;;;;;4408638;32;20026;-68
2022/02/06 01:05:10;;;;;;;41.37;8.15;;;;;;;;;;4408032;32;19938;-68
2022/02/06 01:07:36;;;;;;;;;;;;;;;;;;4406974;32;20054;-68
2022/02/06 01:10:01;;;;;;;39.78;7.60;;;;;;;;;;4407325;32;19937;-68
2022/02/06 01:12:30;;;;;;;;;;;;;;;;;;4407244;32;20049;-68
2022/02/06 01:15:07;;;;;;;46.92;8.40;;;;;;;;;;4403541;32;20286;-69
2022/02/06 01:17:44;;;;;;;50.03;8.77;;;;;;;;;;4393055;32;20451;-69
2022/02/06 01:20:20;;;;;;;35.03;8.77;;;;;;;;;;4392088;32;20374;-68
2022/02/06 01:22:54;;;;;;;44.08;8.38;;;;;;;;;;4407851;32;20068;-69
2022/02/06 01:25:27;;;;;;;47.10;8.45;;;;;;;;;;4407136;32;20447;-67
2022/02/06 01:28:01;;;;;;;50.22;8.77;;;;;;;;;;4407641;32;20317;-68
2022/02/06 01:30:54;;;;;;;51.13;9.65;;;;;;;;;;4404701;32;20041;-69
2022/02/06 01:33:17;;;;;;;40.83;9.80;;;;;;;;;;4406172;32;20063;-69
2022/02/06 01:36:11;;;;;;;51.85;8.57;;;;;;;;;;4399918;32;20026;-68
2022/02/06 01:41:26;;;;;;;56.63;9.48;;;;;;;;;;4383966;32;20022;-68
2022/02/06 01:43:57;;;;;;;48.00;10.07;;;;;;;;;;4390729;32;20093;-67
2022/02/06 01:46:46;;;;;;;45.67;9.55;;;;;;;;;;4392458;32;20015;-68
2022/02/06 02:03:16;;;;;;;53.55;8.23;;;;;;;;;;4407185;32;20372;-67
2022/02/06 02:06:03;;;;;;;65.50;7.75;;;;;;;;;;4406113;32;20073;-68
2022/02/06 02:22:08;;;;;;;44.25;8.63;;;;;;;;;;4391281;32;20053;-68
2022/02/06 02:27:16;;;;;;;46.65;7.50;;;;;;;;;;4391591;32;20031;-68
2022/02/06 02:47:47;;;;;;;;;;;;;;;;;;4406669;32;20101;-68
2022/02/06 02:50:16;;;;;;;42.40;8.82;;;;;;;;;;4406582;32;19945;-69
2022/02/06 02:57:50;;;;;;;45.10;9.07;;;;;;;;;;4404922;32;20404;-68
2022/02/06 03:02:43;;;;;;;41.85;8.65;;;;;;;;;;4405013;32;20026;-68
2022/02/06 03:05:08;;;;;;;;;;;;;;;;;;4406777;32;20079;-69
2022/02/06 03:07:33;;;;;;;46.37;9.30;;;;;;;;;;4390643;32;19942;-67
2022/02/06 03:10:00;;;;;;;;;;;;;;;;;;4389898;32;20598;-69
2022/02/06 03:12:27;;;;;;;32.92;7.22;;;;;;;;;;4390775;32;19946;-69
2022/02/06 03:15:01;;;;;;;38.65;8.95;;;;;;;;;;4390183;32;20031;-69
2022/02/06 03:17:38;;;;;;;47.70;8.32;;;;;;;;;;4391023;32;20072;-68
2022/02/06 03:20:09;;;;;;;46.28;7.03;;;;;;;;;;4390905;32;20384;-68
2022/02/06 03:22:47;;;;;;;42.47;7.53;;;;;;;;;;4391361;32;20015;-69
2022/02/06 03:25:18;;;;;;;48.47;7.72;;;;;;;;;;4391259;32;20073;-68
2022/02/06 03:27:43;;;;;;;39.78;6.50;;;;;;;;;;4390864;32;20068;-68
2022/02/06 03:30:09;;;;;;;46.85;7.32;;;;;;;;;;4389932;32;20031;-68
2022/02/06 03:32:34;;;;;;;;;;;;;;;;;;4404014;32;20156;-68
2022/02/06 03:35:00;;;;;;;41.53;8.63;;;;;;;;;;4405893;32;19934;-69
2022/02/06 03:37:25;;;;;;;;;;;;;;;;;;4404936;32;20335;-69
2022/02/06 03:39:52;;;;;;;52.80;9.10;;;;;;;;;;4405644;32;19945;-68
2022/02/06 03:42:18;;;;;;;43.05;7.85;;;;;;;;;;4406324;32;20026;-68
2022/02/06 03:44:50;;;;;;;;;;;;;;;;;;4399005;32;20049;-67
2022/02/06 03:47:19;;;;;;;37.63;6.45;;;;;;;;;;4388694;32;20241;-69
2022/02/06 03:52:17;;;;;;;37.33;7.47;;;;;;;;;;4392454;32;20019;-68
2022/02/06 03:54:42;;;;;;;47.88;8.90;;;;;;;;;;4394170;32;20348;-68
2022/02/06 03:57:08;;;;;;;;;;;;;;;;;;4394277;32;20062;-69
2022/02/06 03:59:35;;;;;;;36.17;7.22;;;;;;;;;;4392498;32;19942;-68
2022/02/06 04:02:00;;;;;;;45.83;8.55;;;;;;;;;;4393653;32;20165;-69
2022/02/06 04:04:25;;;;;;;;;;;;;;;;;;4407811;32;20027;-69
2022/02/06 04:06:51;;;;;;;42.60;7.12;;;;;;;;;;4408087;32;19945;-68
2022/02/06 04:09:30;;;;;;;;;;;;;;;;;;4407960;32;20115;-69
2022/02/06 04:11:57;;;;;;;57.90;8.40;;;;;;;;;;4408792;32;19941;-67
2022/02/06 04:17:06;;;;;;;;;;;;;;;;;;4407944;32;20067;-68
2022/02/06 04:19:31;;;;;;;44.22;8.00;;;;;;;;;;4408868;32;20306;-70
2022/02/06 04:21:56;;;;;;;;;;;;;;;;;;4408441;32;20113;-68
2022/02/06 04:24:23;;;;;;;54.13;9.63;;;;;;;;;;4391763;32;19937;-69
2022/02/06 04:26:50;;;;;;;50.38;7.75;;;;;;;;;;4393004;32;20073;-69
2022/02/06 04:29:15;;;;;;;48.70;8.93;;;;;;;;;;4393235;32;20034;-69
2022/02/06 04:31:42;;;;;;;;;;;;;;;;;;4391963;32;20140;-69
2022/02/06 04:34:07;;;;;;;52.78;9.35;;;;;;;;;;4391564;32;20020;-69
2022/02/06 04:36:54;;;;;;;;;;;;;;;;;;4393321;32;20421;-69
2022/02/06 04:44:57;;;;;;;;;;;;;;;;;;4393567;32;20031;-71
2022/02/06 04:47:55;;;;;;;44.83;7.47;;;;;;;;;;4393352;32;19989;-70
2022/02/06 04:51:27;;;;;;;42.25;7.75;;;;;;;;;;4391651;32;20039;-70
2022/02/06 05:10:51;;;;;;;43.58;7.22;;;;;;;;;;4399819;32;20064;-69
2022/02/06 05:21:16;;;;;;;34.78;6.62;;;;;;;;;;4390711;32;20072;-70
2022/02/06 05:26:42;;;;;;;38.28;8.00;;;;;;;;;;4388850;32;20094;-68
2022/02/06 05:32:14;;;;;;;36.85;7.60;;;;;;;;;;4405970;32;20019;-70
2022/02/06 05:34:24;;;;;;;42.10;6.85;;;;;;;;;;4406068;32;20495;-71
2022/02/06 05:36:49;;;;;;;;;;;;;;;;;;4406484;32;20111;-70
2022/02/06 05:39:14;;;;;;;35.92;7.07;;;;;;;;;;4404757;32;19938;-71
2022/02/06 05:41:39;;;;;;;;;;;;;;;;;;4408299;32;20497;-70
2022/02/06 05:44:05;;;;;;;42.92;9.05;;;;;;;;;;4407556;32;19933;-69
2022/02/06 05:46:30;;;;;;;;;;;;;;;;;;4395818;32;20073;-69
2022/02/06 05:48:55;;;;;;;52.83;9.27;;;;;;;;;;4406690;32;19988;-68
2022/02/06 05:51:20;;;;;;;;;;;;;;;;;;4406956;32;20070;-68
2022/02/06 05:53:45;;;;;;;40.28;8.57;;;;;;;;;;4406436;32;20019;-69
2022/02/06 05:56:10;;;;;;;;;;;;;;;;;;4407232;32;20424;-69
2022/02/06 05:58:36;;;;;;;48.95;9.40;;;;;;;;;;4406118;32;20319;-69
2022/02/06 06:01:02;;;;;;;;;;;;;;;;;;4405554;32;20482;-70
2022/02/06 06:03:27;;;;;;;53.92;8.00;;;;;;;;;;4404034;32;19946;-68
2022/02/06 06:05:52;;;;;;;;;;;;;;;;;;4407622;32;20064;-69
2022/02/06 06:08:17;;;;;;;51.80;9.07;;;;;;;;;;4405722;32;19938;-68
2022/02/06 06:10:42;;;;;;;;;;;;;;;;;;4406181;32;20018;-69
2022/02/06 06:13:09;;;;;;;51.75;9.07;;;;;;;;;;4405166;32;19977;-69
2022/02/06 06:15:34;;;;;;;52.40;9.10;;;;;;;;;;4397192;32;20099;-69
2022/02/06 06:18:04;;;;;;;;;;;;;;;;;;4392060;32;20089;-69
2022/02/06 06:20:30;;;;;;;46.40;7.43;;;;;;;;;;4391937;32;19993;-69
2022/02/06 06:22:55;;;;;;;49.03;8.68;;;;;;;;;;4391828;32;20061;-70
2022/02/06 06:25:21;;;;;;;;;;;;;;;;;;4390615;32;20102;-68
2022/02/06 06:27:46;;;;;;;43.45;8.70;;;;;;;;;;4390373;32;20303;-69
2022/02/06 06:30:11;;;;;;;;;;;;;;;;;;4396457;32;20023;-69
2022/02/06 06:32:36;;;;;;;39.47;6.45;;;;;;;;;;4406832;32;20220;-68
2022/02/06 06:35:03;;;;;;;;;;;;;;;;;;4407172;32;20023;-70
2022/02/06 06:37:29;;;;;;;38.33;7.07;;;;;;;;;;4406210;32;20016;-70
2022/02/06 06:39:54;;;;;;;;;;;;;;;;;;4404954;32;20351;-70
2022/02/06 06:42:19;;;;;;;43.92;7.45;;;;;;;;;;4405752;32;19937;-71
2022/02/06 06:44:44;;;;;;;;;;;;;;;;;;4405086;32;20215;-71
2022/02/06 06:47:09;;;;;;;39.25;7.70;;;;;;;;;;4388817;32;19961;-70
2022/02/06 06:49:34;;;;;;;;;;;;;;;;;;4391610;32;20115;-70
2022/02/06 06:51:59;;;;;;;43.75;7.82;;;;;;;;;;4390483;32;19989;-71
2022/02/06 06:54:25;;;;;;;;;;;;;;;;;;4390659;32;20401;-72
2022/02/06 06:56:57;;;;;;;50.00;8.88;;;;;;;;;;4391065;32;19969;-72
2022/02/06 06:59:43;;;;;;;49.28;11.25;;;;;;;;;;4389922;32;20048;-71
2022/02/06 07:02:27;;;;;;;41.85;9.68;;;;;;;;;;4390879;32;20053;-70
2022/02/06 07:04:57;;;;;;;35.72;9.05;;;;;;;;;;4405769;32;20038;-72
2022/02/06 07:07:22;;;;;;;49.28;8.02;;;;;;;;;;4404787;32;20343;-72
2022/02/06 07:09:47;;;;;;;;;;;;;;;;;;4406716;32;20049;-71
2022/02/06 07:12:13;;;;;;;39.72;8.40;;;;;;;;;;4405821;32;19961;-70
2022/02/06 07:14:38;;;;;;;;;;;;;;;;;;4405942;32;20505;-70
2022/02/06 07:17:03;;;;;;;43.25;7.55;;;;;;;;;;4402094;32;19941;-70
2022/02/06 07:19:28;;;;;;;;;;;;;;;;;;4404656;32;20027;-70
2022/02/06 07:21:55;;;;;;;47.17;8.40;;;;;;;;;;4404771;32;20232;-70
2022/02/06 07:24:21;;;;;;;53.67;8.82;;;;;;;;;;4405377;32;20180;-69
2022/02/06 07:26:49;;;;;;;46.35;8.95;;;;;;;;;;4409022;32;20049;-70
2022/02/06 07:29:16;;;;;;;44.58;8.00;;;;;;;;;;4406044;32;20019;-69
2022/02/06 07:31:42;;;;;;;42.78;8.57;;;;;;;;;;4408393;32;20053;-71
2022/02/06 07:34:07;;;;;;;;;;;;;;;;;;4407778;32;20049;-70
2022/02/06 07:36:33;;;;;;;42.58;6.97;;;;;;;;;;4408824;32;19947;-69
2022/02/06 07:38:58;;;;;;;;;;;;;;;;;;4408142;32;20114;-68
2022/02/06 07:41:23;;;;;;;45.92;9.52;;;;;;;;;;4408408;32;20328;-69
2022/02/06 07:43:48;;;;;;;39.47;8.68;;;;;;;;;;4407351;32;20018;-69
2022/02/06 07:46:18;;;;;;;;;;;;;;;;;;4409428;32;20018;-69
2022/02/06 07:48:43;;;;;;;38.47;7.10;;;;;;;;;;4408518;32;19937;-67
2022/02/06 07:51:08;;;;;;;;;;;;;;;;;;4407623;32;20014;-68
2022/02/06 07:53:33;;;;;;;45.70;7.10;;;;;;;;;;4395733;32;19934;-68
2022/02/06 07:55:58;;;;;;;;;;;;;;;;;;4392170;32;20066;-69
2022/02/06 07:58:23;;;;;;;38.80;8.15;;;;;;;;;;4393788;32;19953;-69
2022/02/06 08:00:48;;;;;;;;;;;;;;;;;;4392330;32;20114;-68
2022/02/06 08:03:13;;;;;;;38.33;7.82;;;;;;;;;;4393635;32;20283;-68
2022/02/06 08:05:39;;;;;;;;;;;;;;;;;;4394287;32;20019;-70
2022/02/06 08:08:11;;;;;;;58.87;8.60;;;;;;;;;;4390988;32;20236;-69
2022/02/06 08:10:37;;;;;;;38.42;7.78;;;;;;;;;;4392597;32;20101;-68
2022/02/06 08:13:08;;;;;;;;;;;;;;;;;;4394440;32;20061;-69
2022/02/06 08:15:33;;;;;;;40.97;6.28;;;;;;;;;;4392738;32;19938;-68
2022/02/06 08:17:58;;;;;;;;;;;;;;;;;;4392112;32;20076;-69
2022/02/06 08:20:24;;;;;;;38.35;5.00;;;;;;;;;;4392101;32;19981;-72
2022/02/06 08:22:52;;;;;;;27.98;6.15;;;;;;;;;;4391660;32;20052;-70
2022/02/06 08:25:17;;;;;;;37.97;6.22;;;;;;;;;;4393083;32;20027;-71
2022/02/06 08:27:42;;;;;;;;;;;;;;;;;;4393969;32;20022;-69
2022/02/06 08:30:08;;;;;;;30.73;6.30;;;;;;;;;;4393350;32;19985;-69
2022/02/06 08:32:33;;;;;;;;;;;;;;;;;;4400832;32;20119;-70
2022/02/06 08:34:58;;;;;;;32.35;7.22;;;;;;;;;;4407045;32;19971;-70
2022/02/06 08:37:23;;;;;;;;;;;;;;;;;;4407667;32;20048;-70
2022/02/06 08:39:49;;;;;;;24.40;5.12;;;;;;;;;;4406694;32;19975;-70
2022/02/06 08:42:14;;;;;;;;;;;;;;;;;;4407284;32;20093;-70
2022/02/06 08:44:40;;;;;;;30.15;5.40;;;;;;;;;;4407043;32;19942;-70
2022/02/06 08:47:06;;;;;;;29.50;4.85;;;;;;;;;;4400813;32;20563;-70
2022/02/06 08:49:31;;;;;;;;;;;;;;;;;;4393461;32;20015;-69
2022/02/06 08:51:56;;;;;;;27.65;5.45;;;;;;;;;;4392791;32;19933;-70
2022/02/06 08:54:25;;;;;;;;;;;;;;;;;;4392683;32;20137;-70
2022/02/06 08:56:51;;;;;;;30.65;5.45;;;;;;;;;;4391390;32;19981;-68
2022/02/06 08:59:16;;;;;;;;;;;;;;;;;;4392146;32;20022;-69
2022/02/06 09:01:41;;;;;;;25.58;5.43;;;;;;;;;;4406648;32;20311;-69
2022/02/06 09:04:06;;;;;;;;;;;;;;;;;;4407164;32;20049;-69
2022/02/06 09:06:31;;;;;;;28.40;5.65;;;;;;;;;;4407840;32;19983;-70
2022/02/06 09:08:58;;;;;;;;;;;;;;;;;;4407008;32;20122;-69
2022/02/06 09:11:24;;;;;;;28.17;5.53;;;;;;;;;;4406640;32;20217;-71
2022/02/06 09:13:50;;;;;;;24.90;4.93;;;;;;;;;;4407059;32;20068;-70
2022/02/06 09:16:15;;;;;;;;;;;;;;;;;;4393466;32;20019;-71
2022/02/06 09:18:41;;;;;;;19.83;5.30;;;;;;;;;;4392502;32;19973;-70
2022/02/06 09:21:06;;;;;;;18.70;4.45;;;;;;;;;;4391467;32;20149;-70
2022/02/06 09:23:31;;;;;;;21.28;5.50;;;;;;;;;;4390996;32;20170;-70
2022/02/06 09:25:56;;;;;;;28.98;5.45;;;;;;;;;;4391250;32;20053;-70
2022/02/06 09:28:21;;;;;;;;;;;;;;;;;;4392381;32;20022;-70
2022/02/06 09:30:46;;;;;;;22.62;4.87;;;;;;;;;;4393358;32;20267;-70
2022/02/06 09:35:38;;;;;;;26.87;6.32;;;;;;;;;;4392088;32;19933;-71
2022/02/06 09:38:03;;;;;;;27.92;5.55;;;;;;;;;;4391104;32;20053;-72
2022/02/06 09:40:28;;;;;;;;;;;;;;;;;;4390855;32;20337;-71
2022/02/06 09:42:58;;;;;;;23.48;3.90;;;;;;;;;;4390323;32;19934;-71
2022/02/06 09:45:28;;;;;;;14.95;3.17;;;;;;;;;;4402414;32;20030;-71
2022/02/06 09:47:53;;;;;;;23.08;4.12;;;;;;;;;;4406983;32;20065;-71
2022/02/06 09:50:18;;;;;;;;;;;;;;;;;;4407464;32;20030;-71
2022/02/06 09:52:44;;;;;;;22.20;4.70;;;;;;;;;;4406041;32;19933;-70
2022/02/06 09:55:16;;;;;;;;;;;;;;;;;;4407409;32;20076;-70
2022/02/06 09:57:52;;;;;;;19.40;5.22;;;;;;;;;;4406154;32;19945;-70
2022/02/06 10:00:18;;;;;;;25.60;5.45;;;;;;;;;;4406691;32;20060;-70
2022/02/06 10:02:47;;;;;;;;;;;;;;;;;;4407986;32;20098;-72
2022/02/06 10:05:13;;;;;;;15.90;3.28;;;;;;;;;;4407104;32;19948;-71
2022/02/06 10:07:41;;;;;;;;;;;;;;;;;;4406060;32;20100;-70
2022/02/06 10:10:08;;;;;;;29.50;5.10;;;;;;;;;;4405227;32;20310;-71
2022/02/06 10:12:37;;;;;;;20.10;4.40;;;;;;;;;;4405851;32;20354;-70
2022/02/06 10:15:03;;;;;;;28.10;6.03;;;;;;;;;;4406883;32;20019;-72
2022/02/06 10:17:28;;;;;;;;;;;;;;;;;;4407388;32;20048;-72
2022/02/06 10:19:55;;;;;;;17.90;4.75;;;;;;;;;;4404960;32;19942;-71
2022/02/06 10:22:26;;;;;;;23.45;4.97;;;;;;;;;;4404941;32;20065;-71
2022/02/06 10:25:03;;;;;;;30.02;5.68;;;;;;;;;;4401221;32;20058;-70
2022/02/06 10:27:53;;;;;;;35.33;7.00;;;;;;;;;;4393617;32;20061;-70
2022/02/06 10:30:36;;;;;;;25.17;5.75;;;;;;;;;;4407105;32;20104;-70
2022/02/06 10:33:01;;;;;;;29.83;8.43;;;;;;;;;;4403782;32;20104;-70
2022/02/06 10:35:27;;;;;;;;;;;;;;;;;;4405463;32;20034;-71
2022/02/06 10:37:53;;;;;;;35.80;5.05;;;;;;;;;;4404754;32;19933;-71
2022/02/06 10:40:19;;;;;;;23.02;5.32;;;;;;;;;;4405159;32;20095;-73
2022/02/06 10:42:44;;;;;;;;;;;;;;;;;;4400756;32;20157;-71
2022/02/06 10:45:19;;;;;;;23.25;4.28;;;;;;;;;;4390204;32;19961;-70
2022/02/06 10:47:45;;;;;;;29.75;6.93;;;;;;;;;;4391463;32;20022;-71
2022/02/06 10:50:11;;;;;;;;;;;;;;;;;;4391476;32;20164;-71
2022/02/06 10:52:36;;;;;;;24.17;5.22;;;;;;;;;;4388363;32;19950;-71
2022/02/06 10:55:01;;;;;;;;;;;;;;;;;;4391056;32;20140;-69
2022/02/06 10:57:28;;;;;;;25.25;6.22;;;;;;;;;;4389593;32;19948;-70
2022/02/06 10:59:54;;;;;;;37.80;7.93;;;;;;;;;;4389164;32;20027;-69
2022/02/06 11:02:19;;;;;;;;;;;;;;;;;;4389795;32;20075;-70
2022/02/06 11:04:54;;;;;;;9.06;2.00;;;;;;;;;;4390852;32;19942;-71
2022/02/06 11:07:19;;;;;;;12.73;3.03;;;;;;;;;;4389719;32;20368;-69
2022/02/06 11:09:44;;;;;;;;;;;;;;;;;;4390311;32;20019;-69
2022/02/06 11:12:17;;;;;;;8.07;1.62;;;;;;;;;;4390115;32;19934;-71
2022/02/06 11:14:51;;;;;;;7.50;1.23;;;;;;;;;;4397193;32;20022;-70
2022/02/06 11:17:20;;;;;;;10.00;1.95;;;;;;;;;;4406513;32;20156;-70
2022/02/06 11:20:01;;;;;;;12.95;2.12;;;;;;;;;;4405992;32;20023;-70
2022/02/06 11:22:27;;;;;;;7.40;1.85;;;;;;;;;;4399566;32;20061;-69
2022/02/06 11:24:52;;;;;;;;;;;;;;;;;;4391106;32;20015;-70
2022/02/06 11:27:18;;;;;;;13.98;2.42;;;;;;;;;;4389769;32;20279;-71
2022/02/06 11:29:45;;;;;;;13.90;2.28;;;;;;;;;;4376840;32;20077;-70
2022/02/06 11:32:11;;;;;;;13.70;2.70;;;;;;;;;;4389707;32;20031;-70
2022/02/06 11:34:41;;;;;;;15.98;2.95;;;;;;;;;;4389771;32;20022;-71
2022/02/06 11:45:37;;;;;;;19.73;2.95;;;;;;;;;;4406441;32;20068;-69
2022/02/06 11:48:03;;;;;;;;;;;;;;;;;;4405924;32;20034;-70
2022/02/06 11:50:31;;;;;;;9.57;2.08;;;;;;;;;;4401299;32;19938;-70
2022/02/06 11:52:57;;;;;;;25.33;2.30;;;;;;;;;;4390351;32;20381;-70
2022/02/06 11:55:34;;;;;;;13.52;1.98;;;;;;;;;;4390951;32;20043;-70
2022/02/06 11:58:18;;;;;;;13.05;1.95;;;;;;;;;;4391908;32;20019;-70
2022/02/06 12:00:43;;;;;;;15.88;2.45;;;;;;;;;;4389315;32;20046;-71
2022/02/06 12:03:08;;;;;;;;;;;;;;;;;;4389301;32;20051;-69
2022/02/06 12:05:34;;;;;;;16.85;2.58;;;;;;;;;;4390993;32;19973;-71
2022/02/06 12:07:59;;;;;;;;;;;;;;;;;;4389526;32;20519;-71
2022/02/06 12:10:33;;;;;;;16.50;3.40;;;;;;;;;;4391617;32;19934;-70
2022/02/06 12:13:17;;;;;;;11.57;2.30;;;;;;;;;;4396705;32;20064;-70
2022/02/06 12:15:53;;;;;;;8.23;1.80;;;;;;;;;;4407128;32;20022;-70
2022/02/06 12:18:25;;;;;;;5.62;1.35;;;;;;;;;;4408314;32;20383;-70
2022/02/06 12:20:51;;;;;;;9.52;1.75;;;;;;;;;;4394562;32;20074;-71
2022/02/06 12:23:37;;;;;;;9.95;1.90;;;;;;;;;;4393700;32;20023;-70
2022/02/06 12:26:02;;;;;;;10.38;2.33;;;;;;;;;;4393400;32;20153;-70
2022/02/06 12:28:30;;;;;;;;;;;;;;;;;;4393927;32;20395;-71
2022/02/06 12:30:57;;;;;;;11.10;2.12;;;;;;;;;;4391915;32;20008;-71
2022/02/06 12:33:35;;;;;;;9.40;2.00;;;;;;;;;;4391341;32;20034;-69
2022/02/06 12:38:44;;;;;;;12.55;2.08;;;;;;;;;;4392117;32;20129;-70
2022/02/06 12:41:09;;;;;;;;;;;;;;;;;;4393343;32;20058;-71
2022/02/06 12:43:36;;;;;;;15.93;3.20;;;;;;;;;;4390286;32;19933;-70
2022/02/06 12:46:01;;;;;;;20.65;2.95;;;;;;;;;;4391646;32;20134;-71
2022/02/06 12:48:26;;;;;;;;;;;;;;;;;;4390914;32;20477;-71
2022/02/06 12:50:52;;;;;;;24.77;5.62;;;;;;;;;;4393142;32;19978;-72
2022/02/06 12:53:17;;;;;;;;;;;;;;;;;;4390644;32;20110;-71
2022/02/06 12:55:44;;;;;;;11.88;2.10;;;;;;;;;;4390249;32;20323;-71
2022/02/06 12:58:11;;;;;;;12.25;2.35;;;;;;;;;;4392780;32;20019;-71
2022/02/06 13:00:46;;;;;;;16.42;2.75;;;;;;;;;;4391305;32;20079;-71
2022/02/06 13:03:18;;;;;;;13.32;2.20;;;;;;;;;;4392132;32;20085;-72
2022/02/06 13:05:54;;;;;;;12.07;2.37;;;;;;;;;;4399215;32;20034;-71
2022/02/06 13:08:20;;;;;;;17.45;1.83;;;;;;;;;;4400089;32;20030;-72
2022/02/06 13:10:45;;;;;;;;;;;;;;;;;;4394552;32;20117;-71
2022/02/06 13:13:12;;;;;;;10.65;2.25;;;;;;;;;;4400814;32;19980;-74
2022/02/06 13:16:09;;;;;;;10.50;1.77;;;;;;;;;;4421991;32;20041;-72
2022/02/06 13:21:45;;;;;;;8.10;1.92;;;;;;;;;;4403506;32;20050;-72
2022/02/06 13:26:50;;;;;;;8.95;1.87;;;;;;;;;;4398043;32;20022;-73
2022/02/06 13:30:10;;;;;;;12.27;1.80;;;;;;;;;;4391417;32;20333;-72
2022/02/06 13:33:08;;;;;;;6.10;2.35;;;;;;;;;;4399707;32;20049;-71
2022/02/06 13:38:18;;;;;;;12.52;2.15;;;;;;;;;;4365921;32;20112;-71
2022/02/06 13:40:47;;;;;;;11.23;1.90;;;;;;;;;;4398541;32;20026;-72
2022/02/06 13:43:23;;;;;;;8.00;2.28;;;;;;;;;;4407412;32;20394;-72
2022/02/06 13:45:51;;;;;;;7.78;1.90;;;;;;;;;;4405850;32;20364;-72
2022/02/06 13:48:19;;;;;;;6.25;2.10;;;;;;;;;;4399305;32;20030;-73
2022/02/06 13:50:48;;;;;;;12.63;2.28;;;;;;;;;;4390424;32;20412;-72
2022/02/06 13:53:21;;;;;;;11.73;2.28;;;;;;;;;;4390141;32;20041;-72
2022/02/06 13:55:59;;;;;;;14.40;2.37;;;;;;;;;;4401135;32;20031;-73
2022/02/06 13:58:26;;;;;;;9.70;1.80;;;;;;;;;;4401540;32;20352;-73
2022/02/06 14:00:51;;;;;;;;;;;;;;;;;;4396027;32;20100;-73
2022/02/06 14:03:16;;;;;;;9.63;2.15;;;;;;;;;;4396832;32;19941;-72
2022/02/06 14:05:41;;;;;;;;;;;;;;;;;;4395864;32;20427;-72
2022/02/06 14:08:10;;;;;;;9.07;2.25;;;;;;;;;;4393543;32;19948;-73
2022/02/06 14:11:01;;;;;;;13.23;2.08;;;;;;;;;;4391748;32;20093;-72
2022/02/06 14:13:28;;;;;;;7.12;1.77;;;;;;;;;;4392337;32;20030;-73
2022/02/06 14:16:03;;;;;;;4.70;1.60;;;;;;;;;;4389462;32;20049;-70
2022/02/06 14:18:28;;;;;;;8.40;1.73;;;;;;;;;;4391657;32;20068;-71
2022/02/06 14:20:53;;;;;;;;;;;;;;;;;;4391815;32;20364;-72
2022/02/06 14:23:18;;;;;;;7.78;2.15;;;;;;;;;;4398732;32;19933;-71
2022/02/06 14:25:46;;;;;;;;;;;;;;;;;;4406872;32;20105;-72
2022/02/06 14:28:19;;;;;;;6.90;2.10;;;;;;;;;;4404828;32;20358;-72
2022/02/06 14:30:44;;;;;;;6.93;1.42;;;;;;;;;;4406122;32;20088;-73
2022/02/06 14:33:09;;;;;;;;;;;;;;;;;;4405167;32;20176;-70
2022/02/06 14:35:43;;;;;;;14.93;2.00;;;;;;;;;;4405856;32;19953;-72
2022/02/06 14:38:15;;;;;;;9.38;1.90;;;;;;;;;;4395936;32;20019;-71
2022/02/06 14:40:51;;;;;;;13.05;2.28;;;;;;;;;;4391417;32;20532;-72
2022/02/06 14:43:16;;;;;;;11.47;2.00;;;;;;;;;;4389826;32;20076;-70
2022/02/06 14:45:41;;;;;;;;;;;;;;;;;;4390076;32;20125;-72
2022/02/06 14:48:07;;;;;;;13.40;3.17;;;;;;;;;;4389907;32;20221;-71
2022/02/06 14:50:32;;;;;;;;;;;;;;;;;;4389795;32;20052;-71
2022/02/06 14:52:57;;;;;;;12.88;2.40;;;;;;;;;;4402044;32;19942;-72
2022/02/06 14:55:22;;;;;;;;;;;;;;;;;;4405653;32;20046;-72
2022/02/06 14:57:48;;;;;;;10.32;2.20;;;;;;;;;;4404609;32;20346;-71
2022/02/06 15:00:14;;;;;;;12.93;2.62;;;;;;;;;;4406741;32;20064;-71
2022/02/06 15:02:39;;;;;;;;;;;;;;;;;;4391602;32;20031;-71
2022/02/06 15:05:05;;;;;;;10.43;2.10;;;;;;;;;;4389456;32;19934;-72
2022/02/06 15:07:31;;;;;;;;;;;;;;;;;;4391183;32;20130;-72
2022/02/06 15:09:56;;;;;;;7.55;2.10;;;;;;;;;;4404373;32;19950;-72
2022/02/06 15:12:21;;;;;;;;;;;;;;;;;;4401910;32;20073;-72
2022/02/06 15:14:46;;;;;;;9.23;1.70;;;;;;;;;;4389608;32;20068;-72
2022/02/06 15:17:18;;;;;;;;;;;;;;;;;;4402100;32;20018;-72
2022/02/06 15:19:43;;;;;;;7.15;1.65;;;;;;;;;;4405918;32;20305;-72
2022/02/06 15:22:08;;;;;;;8.96;2.08;;;;;;;;;;4400876;32;20441;-71
2022/02/06 15:24:34;;;;;;;;;;;;;;;;;;4391632;32;20364;-71
2022/02/06 15:26:59;;;;;;;4.93;1.98;;;;;;;;;;4398848;32;19942;-71
2022/02/06 15:29:24;;;;;;;;;;;;;;;;;;4403375;32;20027;-72
2022/02/06 15:31:49;;;;;;;7.28;2.25;;;;;;;;;;4401779;32;19959;-73
2022/02/06 15:34:14;;;;;;;;;;;;;;;;;;4405227;32;20083;-71
2022/02/06 15:36:40;;;;;;;8.35;2.15;;;;;;;;;;4405340;32;19937;-71
2022/02/06 15:39:20;;;;;;;14.80;2.60;;;;;;;;;;4397742;32;20139;-73
2022/02/06 15:41:49;;;;;;;13.57;2.00;;;;;;;;;;4395544;32;20048;-72
2022/02/06 15:44:14;;;;;;;11.12;2.10;;;;;;;;;;4398260;32;20068;-73
2022/02/06 15:46:39;;;;;;;;;;;;;;;;;;4403173;32;20018;-70
2022/02/06 15:49:04;;;;;;;15.50;3.72;;;;;;;;;;4397522;32;19950;-72
2022/02/06 15:51:29;;;;;;;14.20;2.97;;;;;;;;;;4392181;32;20201;-72
2022/02/06 15:53:54;;;;;;;;;;;;;;;;;;4404518;32;20133;-71
2022/02/06 15:56:19;;;;;;;20.05;2.70;;;;;;;;;;4396180;32;19944;-71
2022/02/06 15:58:45;;;;;;;;;;;;;;;;;;4392628;32;20438;-69
2022/02/06 16:01:10;;;;;;;16.17;3.28;;;;;;;;;;4392817;32;19993;-70
2022/02/06 16:03:35;;;;;;;;;;;;;;;;;;4392214;32;20049;-71
2022/02/06 16:06:00;;;;;;;9.55;1.77;;;;;;;;;;4391922;32;20385;-70
2022/02/06 16:08:25;;;;;;;;;;;;;;;;;;4392348;32;20047;-71
2022/02/06 16:10:51;;;;;;;12.20;2.55;;;;;;;;;;4391121;32;19938;-70
2022/02/06 16:13:17;;;;;;;5.62;1.92;;;;;;;;;;4391320;32;20056;-70
2022/02/06 16:15:42;;;;;;;;;;;;;;;;;;4392544;32;20344;-70
2022/02/06 16:18:07;;;;;;;11.73;1.83;;;;;;;;;;4391283;32;19938;-70
2022/02/06 16:20:32;;;;;;;;;;;;;;;;;;4403765;32;20519;-72
2022/02/06 16:22:57;;;;;;;12.36;1.98;;;;;;;;;;4406204;32;19985;-71
2022/02/06 16:25:22;;;;;;;;;;;;;;;;;;4407886;32;20023;-70
2022/02/06 16:27:48;;;;;;;9.63;2.47;;;;;;;;;;4405717;32;20009;-70
2022/02/06 16:30:14;;;;;;;;;;;;;;;;;;4395308;32;20119;-70
2022/02/06 16:32:39;;;;;;;11.75;2.25;;;;;;;;;;4394115;32;19951;-70
2022/02/06 16:35:04;;;;;;;;;;;;;;;;;;4392086;32;20039;-71
2022/02/06 16:37:29;;;;;;;9.43;2.35;;;;;;;;;;4402974;32;20038;-70
2022/02/06 16:39:57;;;;;;;7.22;1.73;;;;;;;;;;4405843;32;20129;-70
2022/02/06 16:42:22;;;;;;;3.05;1.00;;;;;;;;;;4406469;32;20115;-71
2022/02/06 16:44:47;;;;;;;;;;;;;;;;;;4397927;32;20356;-70
2022/02/06 16:47:12;;;;;;;6.78;1.55;;;;;;;;;;4392446;32;19953;-71
2022/02/06 16:49:37;;;;;;;;;;;;;;;;;;4392255;32;20116;-71
2022/02/06 16:52:03;;;;;;;7.22;2.54;;;;;;;;;;4391658;32;19974;-70
2022/02/06 16:54:28;;;;;;;;;;;;;;;;;;4390291;32;20052;-72
2022/02/06 16:56:53;;;;;;;8.63;1.90;;;;;;;;;;4390598;32;19948;-71
2022/02/06 16:59:18;;;;;;;;;;;;;;;;;;4394317;32;20190;-71
2022/02/06 17:01:44;;;;;;;10.43;2.47;;;;;;;;;;4391199;32;19957;-71
2022/02/06 17:04:09;;;;;;;;;;;;;;;;;;4391359;32;20397;-71
2022/02/06 17:06:34;;;;;;;7.68;2.40;;;;;;;;;;4398551;32;19937;-73
2022/02/06 17:08:59;;;;;;;;;;;;;;;;;;4396839;32;20018;-72
2022/02/06 17:11:25;;;;;;;10.63;1.90;;;;;;;;;;4404970;32;19952;-71
2022/02/06 17:13:51;;;;;;;;;;;;;;;;;;4398025;32;20074;-71
2022/02/06 17:16:16;;;;;;;12.63;3.37;;;;;;;;;;4403051;32;19957;-72
2022/02/06 17:18:41;;;;;;;;;;;;;;;;;;4404961;32;20083;-73
2022/02/06 17:21:08;;;;;;;10.50;2.35;;;;;;;;;;4406562;32;20208;-73
2022/02/06 17:23:33;;;;;;;12.82;2.65;;;;;;;;;;4405462;32;20045;-71
2022/02/06 17:25:58;;;;;;;;;;;;;;;;;;4393041;32;20105;-72
2022/02/06 17:28:23;;;;;;;9.57;2.25;;;;;;;;;;4390918;32;19952;-72
2022/02/06 17:30:48;;;;;;;;;;;;;;;;;;4391449;32;20094;-72